createdAt,value
2022-08-17T00:00:43.005Z,8.02
2022-08-17T00:03:17.170Z,9.50
2022-08-17T00:05:48.984Z,7.05
2022-08-17T00:08:20.107Z,7.43
2022-08-17T00:10:51.816Z,7.32
2022-08-17T00:13:25.784Z,6.70
2022-08-17T00:15:59.872Z,7.75
2022-08-17T00:19:01.560Z,7.78
2022-08-17T00:21:25.177Z,8.27
2022-08-17T00:23:54.667Z,7.22
2022-08-17T00:26:44.160Z,7.28
2022-08-17T00:29:19.770Z,6.85
2022-08-17T00:31:49.602Z,7.40
2022-08-17T00:34:19.040Z,6.95
2022-08-17T00:36:47.594Z,7.10
2022-08-17T00:39:16.355Z,7.57
2022-08-17T00:41:46.334Z,7.18
2022-08-17T00:44:15.666Z,8.93
2022-08-17T00:46:45.593Z,8.07
2022-08-17T00:49:19.442Z,7.63
2022-08-17T00:51:55.964Z,7.45
2022-08-17T00:54:29.590Z,7.75
2022-08-17T00:57:03.827Z,7.50
2022-08-17T00:59:36.836Z,6.97
2022-08-17T01:02:07.441Z,8.00
2022-08-17T01:04:37.446Z,7.95
2022-08-17T01:07:07.283Z,7.38
2022-08-17T01:09:36.220Z,8.40
2022-08-17T01:12:10.407Z,7.97
2022-08-17T01:14:40.220Z,7.60
2022-08-17T01:17:10.081Z,6.90
2022-08-17T01:19:42.038Z,7.35
2022-08-17T01:22:21.412Z,7.85
2022-08-17T01:24:54.274Z,7.95
2022-08-17T01:27:24.245Z,7.53
2022-08-17T01:29:58.747Z,8.00
2022-08-17T01:32:28.780Z,8.25
2022-08-17T01:35:00.714Z,7.47
2022-08-17T01:37:34.534Z,7.07
2022-08-17T01:40:07.437Z,6.93
2022-08-17T01:42:40.839Z,6.95
2022-08-17T01:45:13.000Z,8.23
2022-08-17T01:47:42.016Z,7.95
2022-08-17T01:50:14.695Z,7.35
2022-08-17T01:52:46.613Z,7.80
2022-08-17T01:55:18.814Z,7.32
2022-08-17T01:57:47.875Z,7.75
2022-08-17T02:00:18.368Z,7.90
2022-08-17T02:02:46.973Z,7.55
2022-08-17T02:05:15.990Z,6.85
2022-08-17T02:07:59.821Z,6.80
2022-08-17T02:10:33.993Z,7.28
2022-08-17T02:13:03.394Z,8.07
2022-08-17T02:15:32.443Z,8.05
2022-08-17T02:18:01.554Z,7.65
2022-08-17T02:20:42.205Z,8.15
2022-08-17T02:23:15.262Z,7.70
2022-08-17T02:25:47.761Z,6.80
2022-08-17T02:28:17.333Z,7.38
2022-08-17T02:31:00.646Z,8.63
2022-08-17T02:33:42.091Z,8.82
2022-08-17T02:36:13.159Z,7.78
2022-08-17T02:38:44.159Z,7.20
2022-08-17T02:41:13.124Z,7.18
2022-08-17T02:43:42.112Z,7.80
2022-08-17T02:46:12.766Z,7.68
2022-08-17T02:48:42.068Z,8.07
2022-08-17T02:51:10.839Z,8.18
2022-08-17T02:53:39.672Z,7.63
2022-08-17T02:56:09.767Z,6.60
2022-08-17T02:58:38.357Z,8.00
2022-08-17T03:01:08.337Z,7.22
2022-08-17T03:03:37.466Z,7.72
2022-08-17T03:06:07.780Z,6.90
2022-08-17T03:08:37.607Z,7.78
2022-08-17T03:11:06.698Z,8.40
2022-08-17T03:13:36.700Z,7.88
2022-08-17T03:16:05.834Z,8.10
2022-08-17T03:18:34.440Z,7.30
2022-08-17T03:21:04.698Z,7.75
2022-08-17T03:23:33.998Z,7.95
2022-08-17T03:26:03.396Z,8.48
2022-08-17T03:28:31.906Z,7.75
2022-08-17T03:31:03.092Z,6.82
2022-08-17T03:33:31.883Z,7.88
2022-08-17T03:36:00.506Z,7.28
2022-08-17T03:38:29.433Z,7.75
2022-08-17T03:41:08.536Z,7.63
2022-08-17T03:43:37.450Z,8.60
2022-08-17T03:46:28.659Z,7.25
2022-08-17T03:49:23.290Z,7.97
2022-08-17T03:52:09.382Z,7.38
2022-08-17T03:54:55.729Z,8.00
2022-08-17T03:57:24.899Z,8.35
2022-08-17T03:59:54.185Z,8.35
2022-08-17T04:02:28.174Z,8.35
2022-08-17T04:04:57.342Z,8.30
2022-08-17T04:07:28.690Z,7.07
2022-08-17T04:09:58.222Z,8.23
2022-08-17T04:12:30.823Z,7.95
2022-08-17T04:15:00.270Z,7.40
2022-08-17T04:17:30.985Z,8.05
2022-08-17T04:19:59.677Z,7.50
2022-08-17T04:22:33.264Z,8.35
2022-08-17T04:25:07.058Z,8.15
2022-08-17T04:27:35.492Z,8.73
2022-08-17T04:30:06.001Z,8.65
2022-08-17T04:33:05.087Z,7.20
2022-08-17T04:35:37.445Z,8.35
2022-08-17T04:38:06.539Z,7.03
2022-08-17T04:40:53.385Z,7.75
2022-08-17T04:43:23.712Z,7.65
2022-08-17T04:45:56.077Z,8.63
2022-08-17T04:48:35.486Z,8.02
2022-08-17T04:51:08.314Z,8.32
2022-08-17T04:53:37.641Z,7.55
2022-08-17T04:56:07.226Z,8.82
2022-08-17T04:58:35.765Z,7.70
2022-08-17T05:01:06.002Z,8.10
2022-08-17T05:03:36.478Z,6.95
2022-08-17T05:06:06.530Z,7.13
2022-08-17T05:08:35.705Z,8.90
2022-08-17T05:11:04.669Z,8.13
2022-08-17T05:13:34.749Z,7.72
2022-08-17T05:16:04.659Z,7.57
2022-08-17T05:18:34.099Z,8.27
2022-08-17T05:21:04.216Z,8.88
2022-08-17T05:23:41.956Z,8.00
2022-08-17T05:26:21.960Z,8.07
2022-08-17T05:28:59.387Z,7.88
2022-08-17T05:31:29.895Z,8.57
2022-08-17T05:33:59.057Z,7.32
2022-08-17T05:36:41.553Z,7.80
2022-08-17T05:39:16.725Z,8.05
2022-08-17T05:41:47.981Z,7.65
2022-08-17T05:44:17.532Z,8.32
2022-08-17T05:46:51.915Z,7.22
2022-08-17T05:49:29.167Z,7.78
2022-08-17T05:52:12.092Z,6.97
2022-08-17T05:54:50.740Z,7.70
2022-08-17T05:57:39.939Z,6.97
2022-08-17T06:00:20.765Z,7.22
2022-08-17T06:03:11.657Z,8.98
2022-08-17T06:05:55.619Z,8.55
2022-08-17T06:08:35.258Z,7.72
2022-08-17T06:11:11.658Z,8.18
2022-08-17T06:14:16.075Z,7.78
2022-08-17T06:16:49.468Z,8.07
2022-08-17T06:19:21.835Z,7.78
2022-08-17T06:21:54.326Z,7.32
2022-08-17T06:24:29.864Z,6.75
2022-08-17T06:27:05.254Z,6.72
2022-08-17T06:29:42.758Z,6.72
2022-08-17T06:32:14.716Z,8.60
2022-08-17T06:34:44.759Z,7.07
2022-08-17T06:37:44.691Z,7.18
2022-08-17T06:40:47.287Z,8.23
2022-08-17T06:43:28.146Z,7.30
2022-08-17T06:46:02.308Z,7.40
2022-08-17T06:48:40.088Z,6.53
2022-08-17T06:51:17.294Z,7.72
2022-08-17T06:53:52.782Z,7.25
2022-08-17T06:56:53.139Z,7.00
2022-08-17T06:59:26.254Z,7.25
2022-08-17T07:02:06.547Z,5.82
2022-08-17T07:04:37.087Z,6.90
2022-08-17T07:07:23.758Z,7.70
2022-08-17T07:09:54.139Z,7.88
2022-08-17T07:12:27.779Z,7.45
2022-08-17T07:15:05.666Z,7.72
2022-08-17T07:17:46.654Z,7.07
2022-08-17T07:20:23.667Z,6.05
2022-08-17T07:23:00.275Z,7.47
2022-08-17T07:25:30.913Z,7.25
2022-08-17T07:28:07.279Z,6.25
2022-08-17T07:30:45.865Z,6.15
2022-08-17T07:33:20.364Z,5.88
2022-08-17T07:35:50.191Z,5.50
2022-08-17T07:38:24.896Z,6.93
2022-08-17T07:41:04.961Z,6.50
2022-08-17T07:43:37.955Z,7.00
2022-08-17T07:46:40.182Z,5.63
2022-08-17T07:49:24.236Z,5.47
2022-08-17T07:52:24.179Z,6.18
2022-08-17T07:54:50.972Z,5.32
2022-08-17T07:57:34.395Z,5.75
2022-08-17T08:00:23.803Z,5.80
2022-08-17T08:03:18.792Z,5.80
2022-08-17T08:05:54.141Z,5.97
2022-08-17T08:08:36.379Z,6.15
2022-08-17T08:11:09.758Z,4.40
2022-08-17T08:13:43.926Z,5.97
2022-08-17T08:16:30.264Z,5.05
2022-08-17T08:19:01.085Z,5.15
2022-08-17T08:21:42.943Z,5.25
2022-08-17T08:24:31.182Z,5.25
2022-08-17T08:27:09.254Z,4.25
2022-08-17T08:29:45.530Z,3.75
2022-08-17T08:32:26.931Z,3.88
2022-08-17T08:35:04.894Z,3.22
2022-08-17T08:37:44.287Z,3.38
2022-08-17T08:40:29.947Z,4.30
2022-08-17T08:43:08.308Z,3.85
2022-08-17T08:45:45.674Z,3.80
2022-08-17T08:48:53.956Z,3.72
2022-08-17T08:51:31.209Z,3.90
2022-08-17T08:54:08.359Z,3.22
2022-08-17T08:56:58.975Z,3.63
2022-08-17T08:59:57.889Z,3.00
2022-08-17T09:02:50.109Z,3.83
2022-08-17T09:05:30.441Z,3.67
2022-08-17T09:08:10.731Z,3.50
2022-08-17T09:10:58.495Z,2.90
2022-08-17T09:13:37.260Z,3.47
2022-08-17T09:16:15.408Z,2.78
2022-08-17T09:19:02.159Z,4.38
2022-08-17T09:21:43.078Z,3.17
2022-08-17T09:24:25.101Z,3.15
2022-08-17T09:27:00.653Z,3.50
2022-08-17T09:29:35.591Z,3.28
2022-08-17T09:32:10.320Z,3.60
2022-08-17T09:34:47.063Z,3.35
2022-08-17T09:37:24.339Z,3.58
2022-08-17T09:40:03.920Z,3.20
2022-08-17T09:42:39.097Z,3.72
2022-08-17T09:45:17.496Z,3.30
2022-08-17T09:47:51.605Z,3.28
2022-08-17T09:50:55.337Z,2.97
2022-08-17T09:53:14.590Z,3.35
2022-08-17T09:56:01.765Z,3.08
2022-08-17T09:58:43.649Z,3.55
2022-08-17T10:01:21.303Z,2.30
2022-08-17T10:04:11.930Z,3.40
2022-08-17T10:06:52.344Z,3.65
2022-08-17T10:09:33.439Z,3.15
2022-08-17T10:12:20.523Z,3.55
2022-08-17T10:15:08.197Z,2.45
2022-08-17T10:17:55.690Z,3.13
2022-08-17T10:20:29.608Z,2.85
2022-08-17T10:23:19.507Z,2.78
2022-08-17T10:26:11.499Z,3.30
2022-08-17T10:28:50.216Z,2.90
2022-08-17T10:31:35.915Z,3.42
2022-08-17T10:34:47.532Z,2.65
2022-08-17T10:37:41.717Z,3.00
2022-08-17T10:40:24.793Z,2.63
2022-08-17T10:43:01.316Z,2.78
2022-08-17T10:45:35.858Z,3.00
2022-08-17T10:48:32.459Z,2.58
2022-08-17T10:51:08.792Z,2.95
2022-08-17T10:53:54.561Z,2.85
2022-08-17T10:56:39.475Z,2.42
2022-08-17T10:59:10.407Z,3.30
2022-08-17T11:02:08.227Z,3.80
2022-08-17T11:04:52.537Z,3.20
2022-08-17T11:07:35.051Z,2.90
2022-08-17T11:10:20.098Z,3.28
2022-08-17T11:13:01.432Z,3.08
2022-08-17T11:15:47.208Z,2.95
2022-08-17T11:18:29.856Z,2.72
2022-08-17T11:21:26.334Z,3.30
2022-08-17T11:24:06.128Z,3.05
2022-08-17T11:26:37.024Z,3.22
2022-08-17T11:29:09.951Z,2.47
2022-08-17T11:31:44.711Z,3.50
2022-08-17T11:34:19.963Z,2.85
2022-08-17T11:37:21.100Z,3.67
2022-08-17T11:40:19.479Z,2.80
2022-08-17T11:43:03.513Z,3.33
2022-08-17T11:45:53.402Z,2.80
2022-08-17T11:48:50.531Z,3.03
2022-08-17T11:51:41.954Z,3.50
2022-08-17T11:54:32.309Z,3.08
2022-08-17T11:57:22.455Z,3.80
2022-08-17T12:00:00.427Z,2.85
2022-08-17T12:02:39.056Z,2.90
2022-08-17T12:05:35.347Z,2.72
2022-08-17T12:08:15.365Z,2.97
2022-08-17T12:11:03.120Z,3.17
2022-08-17T12:13:39.786Z,3.30
2022-08-17T12:16:10.105Z,3.38
2022-08-17T12:18:42.178Z,3.45
2022-08-17T12:21:37.886Z,3.28
2022-08-17T12:24:19.090Z,2.95
2022-08-17T12:26:53.595Z,3.45
2022-08-17T12:29:35.637Z,3.10
2022-08-17T12:32:14.422Z,2.97
2022-08-17T12:34:45.325Z,3.83
2022-08-17T12:37:19.971Z,3.42
2022-08-17T12:39:55.761Z,3.25
2022-08-17T12:42:29.330Z,2.85
2022-08-17T12:44:58.325Z,3.80
2022-08-17T12:47:29.417Z,3.75
2022-08-17T12:50:08.430Z,3.65
2022-08-17T12:53:02.252Z,3.42
2022-08-17T12:55:36.511Z,2.92
2022-08-17T12:58:05.405Z,3.03
2022-08-17T13:00:38.069Z,3.53
2022-08-17T13:03:09.751Z,3.30
2022-08-17T13:05:44.113Z,2.85
2022-08-17T13:08:18.315Z,3.75
2022-08-17T13:10:56.567Z,3.72
2022-08-17T13:13:28.566Z,3.40
2022-08-17T13:15:59.739Z,3.35
2022-08-17T13:18:41.876Z,3.45
2022-08-17T13:21:19.318Z,4.00
2022-08-17T13:23:58.370Z,3.50
2022-08-17T13:26:32.539Z,3.70
2022-08-17T13:29:02.209Z,3.72
2022-08-17T13:31:52.400Z,3.65
2022-08-17T13:34:38.694Z,3.67
2022-08-17T13:37:32.715Z,4.00
2022-08-17T13:40:21.152Z,4.10
2022-08-17T13:42:53.824Z,3.90
2022-08-17T13:45:46.005Z,3.40
2022-08-17T13:48:28.255Z,3.75
2022-08-17T13:51:32.003Z,4.00
2022-08-17T13:54:26.354Z,4.15
2022-08-17T13:57:00.502Z,4.32
2022-08-17T13:59:53.015Z,4.57
2022-08-17T14:02:28.242Z,3.42
2022-08-17T14:05:00.526Z,3.40
2022-08-17T14:07:35.754Z,4.32
2022-08-17T14:10:10.415Z,3.78
2022-08-17T14:12:42.276Z,3.72
2022-08-17T14:15:12.451Z,3.78
2022-08-17T14:17:41.005Z,3.33
2022-08-17T14:20:12.216Z,3.50
2022-08-17T14:22:46.805Z,3.30
2022-08-17T14:25:17.594Z,3.70
2022-08-17T14:27:53.158Z,4.10
2022-08-17T14:30:24.937Z,4.25
2022-08-17T14:32:54.600Z,4.20
2022-08-17T14:35:24.752Z,3.78
2022-08-17T14:37:54.174Z,3.78
2022-08-17T14:40:25.423Z,3.60
2022-08-17T14:42:57.857Z,3.63
2022-08-17T14:45:29.894Z,3.83
2022-08-17T14:48:05.687Z,3.10
2022-08-17T14:50:35.392Z,3.63
2022-08-17T14:53:05.938Z,3.25
2022-08-17T14:55:34.623Z,3.67
2022-08-17T14:58:05.057Z,3.03
2022-08-17T15:00:33.893Z,3.22
2022-08-17T15:03:03.434Z,3.53
2022-08-17T15:05:33.673Z,3.22
2022-08-17T15:08:03.465Z,3.45
2022-08-17T15:10:32.314Z,2.80
2022-08-17T15:13:00.871Z,3.83
2022-08-17T15:15:31.869Z,3.85
2022-08-17T15:18:01.032Z,3.72
2022-08-17T15:20:31.478Z,3.60
2022-08-17T15:23:00.178Z,3.53
2022-08-17T15:25:31.889Z,3.47
2022-08-17T15:28:01.590Z,3.65
2022-08-17T15:30:32.412Z,3.55
2022-08-17T15:33:01.204Z,3.38
2022-08-17T15:35:32.637Z,3.17
2022-08-17T15:38:09.762Z,3.50
2022-08-17T15:40:42.396Z,2.92
2022-08-17T15:43:14.004Z,3.58
2022-08-17T15:45:44.045Z,3.67
2022-08-17T15:48:14.260Z,3.47
2022-08-17T15:50:42.996Z,3.25
2022-08-17T15:53:11.789Z,3.33
2022-08-17T15:55:43.937Z,3.30
2022-08-17T15:58:12.442Z,3.90
2022-08-17T16:00:53.124Z,3.47
2022-08-17T16:03:56.032Z,3.03
2022-08-17T16:06:20.841Z,3.42
2022-08-17T16:08:49.492Z,2.90
2022-08-17T16:11:18.764Z,3.40
2022-08-17T16:13:55.104Z,2.80
2022-08-17T16:16:24.883Z,3.50
2022-08-17T16:18:59.280Z,3.10
2022-08-17T16:21:31.110Z,2.88
2022-08-17T16:24:13.232Z,3.40
2022-08-17T16:26:42.353Z,3.35
2022-08-17T16:29:10.812Z,3.38
2022-08-17T16:31:39.415Z,3.65
2022-08-17T16:34:17.924Z,3.80
2022-08-17T16:36:54.836Z,3.65
2022-08-17T16:39:26.625Z,3.13
2022-08-17T16:41:56.028Z,4.40
2022-08-17T16:44:25.924Z,4.38
2022-08-17T16:46:54.555Z,4.22
2022-08-17T16:49:36.815Z,4.03
2022-08-17T16:52:07.953Z,3.65
2022-08-17T16:54:38.999Z,5.25
2022-08-17T16:57:07.660Z,4.55
2022-08-17T16:59:41.893Z,4.22
2022-08-17T17:02:15.113Z,4.50
2022-08-17T17:04:50.466Z,4.25
2022-08-17T17:07:34.821Z,3.83
2022-08-17T17:10:08.563Z,4.05
2022-08-17T17:13:02.247Z,4.47
2022-08-17T17:15:40.377Z,4.45
2022-08-17T17:18:14.715Z,5.63
2022-08-17T17:20:54.217Z,5.43
2022-08-17T17:23:37.163Z,5.72
2022-08-17T17:26:15.789Z,4.35
2022-08-17T17:28:55.193Z,4.85
2022-08-17T17:31:29.496Z,5.03
2022-08-17T17:34:00.526Z,4.22
2022-08-17T17:36:39.275Z,4.68
2022-08-17T17:39:13.217Z,4.72
2022-08-17T17:41:48.486Z,3.63
2022-08-17T17:44:21.121Z,4.63
2022-08-17T17:46:54.261Z,4.10
2022-08-17T17:49:23.322Z,4.47
2022-08-17T17:52:11.137Z,4.63
2022-08-17T17:54:59.843Z,3.95
2022-08-17T17:57:40.201Z,4.20
2022-08-17T18:00:14.219Z,4.65
2022-08-17T18:02:53.270Z,4.57
2022-08-17T18:05:38.898Z,3.78
2022-08-17T18:08:33.909Z,4.28
2022-08-17T18:11:12.973Z,4.78
2022-08-17T18:13:57.532Z,4.90
2022-08-17T18:16:29.622Z,5.38
2022-08-17T18:19:01.360Z,4.35
2022-08-17T18:21:37.849Z,4.97
2022-08-17T18:24:10.522Z,4.68
2022-08-17T18:26:44.815Z,5.15
2022-08-17T18:29:25.169Z,3.90
2022-08-17T18:32:19.956Z,4.70
2022-08-17T18:34:51.011Z,5.60
2022-08-17T18:37:48.090Z,5.25
2022-08-17T18:40:37.652Z,4.03
2022-08-17T18:43:11.273Z,4.20
2022-08-17T18:45:44.208Z,4.68
2022-08-17T18:48:22.372Z,5.32
2022-08-17T18:50:53.475Z,5.20
2022-08-17T18:53:36.482Z,4.68
2022-08-17T18:56:22.524Z,4.70
2022-08-17T18:59:02.085Z,4.63
2022-08-17T19:01:52.403Z,5.70
2022-08-17T19:04:34.552Z,4.88
2022-08-17T19:07:11.588Z,5.10
2022-08-17T19:09:44.839Z,4.93
2022-08-17T19:12:27.340Z,5.18
2022-08-17T19:14:58.053Z,4.55
2022-08-17T19:17:33.468Z,5.20
2022-08-17T19:20:11.444Z,4.90
2022-08-17T19:23:07.868Z,5.72
2022-08-17T19:25:41.292Z,4.72
2022-08-17T19:28:22.261Z,5.07
2022-08-17T19:30:57.223Z,5.18
2022-08-17T19:33:25.969Z,5.30
2022-08-17T19:36:07.088Z,5.28
2022-08-17T19:38:45.048Z,5.43
2022-08-17T19:41:21.825Z,5.47
2022-08-17T19:44:19.624Z,5.65
2022-08-17T19:46:56.367Z,5.25
2022-08-17T19:49:45.649Z,6.05
2022-08-17T19:52:41.358Z,5.03
2022-08-17T19:55:20.645Z,5.65
2022-08-17T19:58:01.159Z,5.65
2022-08-17T20:00:32.218Z,5.45
2022-08-17T20:03:06.383Z,6.15
2022-08-17T20:06:08.815Z,5.47
2022-08-17T20:08:30.560Z,6.00
2022-08-17T20:11:03.008Z,6.38
2022-08-17T20:13:37.588Z,5.95
2022-08-17T20:16:10.012Z,5.07
2022-08-17T20:18:47.471Z,5.70
2022-08-17T20:21:20.526Z,5.50
2022-08-17T20:23:54.976Z,5.18
2022-08-17T20:26:27.340Z,5.53
2022-08-17T20:29:37.569Z,4.93
2022-08-17T20:32:32.380Z,5.53
2022-08-17T20:35:20.005Z,6.20
2022-08-17T20:38:01.946Z,6.22
2022-08-17T20:40:38.540Z,5.82
2022-08-17T20:43:40.118Z,5.22
2022-08-17T20:46:20.037Z,6.95
2022-08-17T20:48:54.110Z,5.97
2022-08-17T20:51:31.571Z,6.45
2022-08-17T20:54:24.138Z,5.97
2022-08-17T20:56:56.299Z,6.00
2022-08-17T20:59:56.768Z,5.40
2022-08-17T21:02:28.074Z,7.55
2022-08-17T21:05:08.125Z,6.72
2022-08-17T21:07:55.879Z,6.85
2022-08-17T21:10:36.707Z,6.78
2022-08-17T21:13:35.611Z,5.90
2022-08-17T21:16:11.363Z,6.15
2022-08-17T21:18:45.572Z,7.07
2022-08-17T21:21:24.141Z,6.82
2022-08-17T21:24:14.977Z,6.85
2022-08-17T21:26:55.445Z,6.18
2022-08-17T21:29:30.860Z,7.10
2022-08-17T21:32:23.728Z,7.22
2022-08-17T21:35:23.197Z,7.25
2022-08-17T21:37:57.431Z,6.93
2022-08-17T21:40:29.003Z,7.78
2022-08-17T21:43:00.446Z,6.78
2022-08-17T21:45:31.754Z,7.80
2022-08-17T21:48:13.384Z,6.82
2022-08-17T21:50:46.271Z,7.13
2022-08-17T21:53:30.673Z,7.18
2022-08-17T21:56:01.970Z,7.88
2022-08-17T21:58:33.182Z,6.80
2022-08-17T22:01:23.466Z,7.78
2022-08-17T22:04:08.656Z,8.00
2022-08-17T22:06:39.872Z,7.63
2022-08-17T22:09:19.046Z,7.38
2022-08-17T22:12:07.938Z,8.45
2022-08-17T22:14:52.913Z,7.35
2022-08-17T22:17:24.793Z,7.30
2022-08-17T22:19:56.373Z,7.78
2022-08-17T22:22:34.629Z,6.97
2022-08-17T22:25:08.021Z,6.93
2022-08-17T22:27:51.532Z,8.13
2022-08-17T22:30:36.444Z,7.65
2022-08-17T22:33:37.769Z,7.65
2022-08-17T22:36:12.309Z,7.43
2022-08-17T22:38:43.590Z,8.57
2022-08-17T22:41:34.812Z,8.98
2022-08-17T22:44:24.163Z,7.53
2022-08-17T22:47:00.180Z,7.82
2022-08-17T22:49:32.459Z,7.80
2022-08-17T22:52:19.528Z,8.57
2022-08-17T22:55:09.530Z,8.13
2022-08-17T22:58:05.896Z,7.95
2022-08-17T23:00:40.046Z,8.10
2022-08-17T23:03:23.315Z,8.18
2022-08-17T23:06:05.217Z,9.05
2022-08-17T23:08:36.034Z,8.77
2022-08-17T23:11:06.445Z,8.75
2022-08-17T23:13:37.944Z,8.77
2022-08-17T23:16:06.450Z,9.02
2022-08-17T23:18:35.540Z,8.13
2022-08-17T23:21:05.075Z,8.05
2022-08-17T23:23:34.781Z,9.20
2022-08-17T23:26:02.983Z,8.63
2022-08-17T23:28:31.472Z,8.73
2022-08-17T23:31:01.416Z,9.73
2022-08-17T23:33:33.645Z,8.60
2022-08-17T23:36:02.553Z,8.20
2022-08-17T23:38:32.960Z,10.02
2022-08-17T23:41:08.907Z,8.95
2022-08-17T23:43:55.634Z,9.55
2022-08-17T23:46:25.289Z,9.25
2022-08-17T23:48:54.432Z,8.23
2022-08-17T23:51:26.300Z,8.63
2022-08-17T23:54:00.471Z,9.02
2022-08-17T23:56:31.282Z,8.95
2022-08-17T23:59:00.219Z,8.60
